createdAt,value
2019-04-20T18:30:27.425Z,23.90
2019-04-20T18:33:40.443Z,22.70
2019-04-20T18:36:13.928Z,21.70
2019-04-20T18:38:46.768Z,22.60
2019-04-20T18:41:21.001Z,23.60
2019-04-20T18:43:48.829Z,25.00
2019-04-20T18:46:39.250Z,24.90
2019-04-20T18:49:10.305Z,25.70
2019-04-20T18:51:25.951Z,26.40
2019-04-20T18:54:05.754Z,26.40
2019-04-20T18:56:33.043Z,26.70
2019-04-20T18:58:58.877Z,27.30
2019-04-20T19:01:30.916Z,27.40
2019-04-20T19:04:01.692Z,27.70
2019-04-20T19:06:31.805Z,28.70
2019-04-20T19:09:00.901Z,29.10
2019-04-20T19:11:30.900Z,28.80
2019-04-20T19:14:27.595Z,28.70
2019-04-20T19:17:00.392Z,28.80
2019-04-20T19:19:32.007Z,29.30
2019-04-20T19:21:54.170Z,29.60
2019-04-20T19:24:27.665Z,29.70
2019-04-20T19:26:58.329Z,29.50
2019-04-20T19:29:33.339Z,30.00
2019-04-20T19:32:23.866Z,29.80
2019-04-20T19:34:50.041Z,30.00
2019-04-20T19:37:15.735Z,30.10
2019-04-20T19:39:50.659Z,30.30
2019-04-20T19:42:27.645Z,30.60
2019-04-20T19:44:53.824Z,30.50
2019-04-20T19:47:32.601Z,31.10
2019-04-20T19:49:51.783Z,30.90
2019-04-20T19:52:51.765Z,31.10
2019-04-20T19:55:02.946Z,31.70
2019-04-20T19:57:31.051Z,31.60
2019-04-20T19:59:47.167Z,31.70
2019-04-20T20:02:13.937Z,31.20
2019-04-20T20:04:49.195Z,31.60
2019-04-20T20:07:22.026Z,31.60
2019-04-20T20:09:53.013Z,31.70
2019-04-20T20:12:23.281Z,31.40
2019-04-20T20:14:55.228Z,32.00
2019-04-20T20:17:43.748Z,32.30
2019-04-20T20:20:26.288Z,32.30
2019-04-20T20:22:37.182Z,32.20
2019-04-20T20:25:07.278Z,32.70
2019-04-20T20:27:52.429Z,32.90
2019-04-20T20:30:27.914Z,32.50
2019-04-20T20:33:13.885Z,32.20
2019-04-20T20:35:45.472Z,32.50
2019-04-20T20:38:19.103Z,32.50
2019-04-20T20:40:58.966Z,32.30
2019-04-20T20:43:34.498Z,32.60
2019-04-20T20:46:04.992Z,32.90
2019-04-20T20:48:49.450Z,33.00
2019-04-20T20:51:32.426Z,32.80
2019-04-20T20:53:50.932Z,33.30
2019-04-20T20:56:22.099Z,34.10
2019-04-20T20:58:57.861Z,34.10
2019-04-20T21:01:25.389Z,34.20
2019-04-20T21:03:58.450Z,34.30
2019-04-20T21:06:31.150Z,34.40
2019-04-20T21:09:06.368Z,34.50
2019-04-20T21:11:42.182Z,33.70
2019-04-20T21:14:13.578Z,33.30
2019-04-20T21:17:15.194Z,33.80
2019-04-20T21:19:58.366Z,34.00
2019-04-20T21:22:19.134Z,34.00
2019-04-20T21:24:51.337Z,34.10
2019-04-20T21:27:24.089Z,34.20
2019-04-20T21:29:58.217Z,34.00
2019-04-20T21:32:33.046Z,34.50
2019-04-20T21:35:07.302Z,34.20
2019-04-20T21:37:41.380Z,34.60
2019-04-20T21:40:23.514Z,34.90
2019-04-20T21:43:05.236Z,35.20
2019-04-20T21:45:37.453Z,35.30
2019-04-20T21:48:09.752Z,35.10
2019-04-20T21:50:59.723Z,35.20
2019-04-20T21:53:17.787Z,35.70
2019-04-20T21:55:43.732Z,36.30
2019-04-20T21:58:18.389Z,36.50
2019-04-20T22:01:08.862Z,36.50
2019-04-20T22:03:32.064Z,36.70
2019-04-20T22:06:06.773Z,36.60
2019-04-20T22:08:44.538Z,36.60
2019-04-20T22:11:18.224Z,36.40
2019-04-20T22:13:49.329Z,36.70
2019-04-20T22:16:20.067Z,37.10
2019-04-20T22:19:04.872Z,37.00
2019-04-20T22:21:35.484Z,36.60
2019-04-20T22:24:07.953Z,36.80
2019-04-20T22:26:32.715Z,37.10
2019-04-20T22:29:00.448Z,37.90
2019-04-20T22:31:36.039Z,37.30
2019-04-20T22:34:15.001Z,37.90
2019-04-20T22:36:44.808Z,37.90
2019-04-20T22:39:13.657Z,38.10
2019-04-20T22:41:52.447Z,38.20
2019-04-20T22:44:20.825Z,38.40
2019-04-20T22:46:50.069Z,39.00
2019-04-20T22:49:38.844Z,39.20
2019-04-20T22:51:59.518Z,39.40
2019-04-20T22:54:39.733Z,39.30
2019-04-20T22:57:05.932Z,39.30
2019-04-20T22:59:42.137Z,39.80
2019-04-20T23:02:08.456Z,39.60
2019-04-20T23:04:39.144Z,39.70
2019-04-20T23:07:10.714Z,39.60
2019-04-20T23:09:48.638Z,39.80
2019-04-20T23:12:20.681Z,39.90
2019-04-20T23:14:47.967Z,41.00
2019-04-20T23:17:28.362Z,40.40
2019-04-20T23:19:57.713Z,40.50
2019-04-20T23:22:34.809Z,40.50
2019-04-20T23:24:59.475Z,40.40
2019-04-20T23:27:31.535Z,40.60
2019-04-20T23:30:06.003Z,40.80
2019-04-20T23:32:30.250Z,40.90
2019-04-20T23:35:04.878Z,41.50
2019-04-20T23:37:33.144Z,41.60
2019-04-20T23:40:00.586Z,42.00
2019-04-20T23:42:36.048Z,42.00
2019-04-20T23:45:07.404Z,42.10
2019-04-20T23:47:45.674Z,42.00
2019-04-20T23:50:30.670Z,42.10
2019-04-20T23:52:59.679Z,42.20
2019-04-20T23:55:13.954Z,42.70
2019-04-20T23:57:41.989Z,42.80
